Los Angeles, California
Current Conditions -  °F | °C
As of 10:47 PM on Tuesday 21 Oct 2014 (Local Time) from KCQT Reporting Station
Clear Clear  
Wind Chill: 66°   Ceiling: Unl
Heat Index: 66°   Visibility: 10mi
Dew Point: 61°   Wind: 0mph
Humidity: 84%   Direction: NA
Pressure: 29.87"   Gusts: NA
Location:  34.05°N, 118.24°W
Report Text: KCQT 220547Z AUTO 00000KT 10SM CLR 19/16 A2987 RMK AO2 SLP111 T01890161 10228 20189 51007
Loading
Personal Weather Stations






























Interactive Weather Map
Tropical Storm Tracking
New forecast layout! Learn more

10-Day Weather Forecast

Advertisements
Track Severe Weather on mobile